sensor_id;sensor_type;location;lat;lon;timestamp;P1;durP1;ratioP1;P2;durP2;ratioP2
32393;SDS011;18853;45.426;9.206;2024-02-14T00:01:48;28.20;;;17.70;;
32393;SDS011;18853;45.426;9.206;2024-02-14T00:04:14;26.15;;;18.00;;
32393;SDS011;18853;45.426;9.206;2024-02-14T00:06:39;25.13;;;17.92;;
32393;SDS011;18853;45.426;9.206;2024-02-14T00:09:05;22.73;;;17.38;;
32393;SDS011;18853;45.426;9.206;2024-02-14T00:11:31;31.83;;;19.38;;
32393;SDS011;18853;45.426;9.206;2024-02-14T00:13:57;25.35;;;17.35;;
32393;SDS011;18853;45.426;9.206;2024-02-14T00:16:24;24.42;;;17.27;;
32393;SDS011;18853;45.426;9.206;2024-02-14T00:18:49;28.58;;;18.08;;
32393;SDS011;18853;45.426;9.206;2024-02-14T00:21:16;29.48;;;18.70;;
32393;SDS011;18853;45.426;9.206;2024-02-14T00:23:41;24.95;;;17.42;;
32393;SDS011;18853;45.426;9.206;2024-02-14T00:26:07;25.67;;;18.08;;
32393;SDS011;18853;45.426;9.206;2024-02-14T00:28:32;28.67;;;18.38;;
32393;SDS011;18853;45.426;9.206;2024-02-14T00:30:58;28.23;;;18.45;;
32393;SDS011;18853;45.426;9.206;2024-02-14T00:33:24;22.95;;;16.90;;
32393;SDS011;18853;45.426;9.206;2024-02-14T00:35:49;29.83;;;18.90;;
32393;SDS011;18853;45.426;9.206;2024-02-14T00:38:15;27.17;;;18.30;;
32393;SDS011;18853;45.426;9.206;2024-02-14T00:40:41;24.85;;;17.55;;
32393;SDS011;18853;45.426;9.206;2024-02-14T00:43:06;31.25;;;18.35;;
32393;SDS011;18853;45.426;9.206;2024-02-14T00:45:32;22.63;;;17.38;;
32393;SDS011;18853;45.426;9.206;2024-02-14T00:47:57;25.75;;;17.65;;
32393;SDS011;18853;45.426;9.206;2024-02-14T00:50:23;25.42;;;17.33;;
32393;SDS011;18853;45.426;9.206;2024-02-14T00:52:48;26.55;;;18.73;;
32393;SDS011;18853;45.426;9.206;2024-02-14T00:55:14;29.65;;;17.42;;
32393;SDS011;18853;45.426;9.206;2024-02-14T00:57:40;25.05;;;17.05;;
32393;SDS011;18853;45.426;9.206;2024-02-14T01:00:06;28.10;;;18.10;;
32393;SDS011;18853;45.426;9.206;2024-02-14T01:02:32;26.60;;;17.67;;
32393;SDS011;18853;45.426;9.206;2024-02-14T01:04:57;26.27;;;18.08;;
32393;SDS011;18853;45.426;9.206;2024-02-14T01:07:23;26.90;;;17.85;;
32393;SDS011;18853;45.426;9.206;2024-02-14T01:09:49;27.75;;;17.92;;
32393;SDS011;18853;45.426;9.206;2024-02-14T01:12:15;23.50;;;17.00;;
32393;SDS011;18853;45.426;9.206;2024-02-14T01:14:41;26.50;;;17.40;;
32393;SDS011;18853;45.426;9.206;2024-02-14T01:17:07;28.38;;;17.67;;
32393;SDS011;18853;45.426;9.206;2024-02-14T01:19:33;22.67;;;16.40;;
32393;SDS011;18853;45.426;9.206;2024-02-14T01:21:59;28.70;;;17.52;;
32393;SDS011;18853;45.426;9.206;2024-02-14T01:24:24;27.67;;;17.50;;
32393;SDS011;18853;45.426;9.206;2024-02-14T01:26:52;25.08;;;17.05;;
32393;SDS011;18853;45.426;9.206;2024-02-14T01:29:20;24.67;;;15.70;;
32393;SDS011;18853;45.426;9.206;2024-02-14T01:31:45;20.17;;;14.93;;
32393;SDS011;18853;45.426;9.206;2024-02-14T01:34:11;27.58;;;16.73;;
32393;SDS011;18853;45.426;9.206;2024-02-14T01:36:36;23.77;;;15.50;;
32393;SDS011;18853;45.426;9.206;2024-02-14T01:39:03;26.23;;;16.33;;
32393;SDS011;18853;45.426;9.206;2024-02-14T01:41:32;26.38;;;16.50;;
32393;SDS011;18853;45.426;9.206;2024-02-14T01:43:58;25.58;;;16.30;;
32393;SDS011;18853;45.426;9.206;2024-02-14T01:46:24;24.83;;;16.05;;
32393;SDS011;18853;45.426;9.206;2024-02-14T01:48:50;25.73;;;16.40;;
32393;SDS011;18853;45.426;9.206;2024-02-14T01:51:16;23.27;;;16.30;;
32393;SDS011;18853;45.426;9.206;2024-02-14T01:53:46;23.60;;;15.80;;
32393;SDS011;18853;45.426;9.206;2024-02-14T01:56:12;28.48;;;16.67;;
32393;SDS011;18853;45.426;9.206;2024-02-14T01:58:37;23.25;;;16.58;;
32393;SDS011;18853;45.426;9.206;2024-02-14T02:01:03;24.60;;;16.63;;
32393;SDS011;18853;45.426;9.206;2024-02-14T02:03:29;24.48;;;16.45;;
32393;SDS011;18853;45.426;9.206;2024-02-14T02:05:58;26.67;;;16.15;;
32393;SDS011;18853;45.426;9.206;2024-02-14T02:08:24;22.80;;;15.30;;
32393;SDS011;18853;45.426;9.206;2024-02-14T02:10:49;26.60;;;16.83;;
32393;SDS011;18853;45.426;9.206;2024-02-14T02:13:15;27.63;;;16.00;;
32393;SDS011;18853;45.426;9.206;2024-02-14T02:15:41;23.15;;;15.93;;
32393;SDS011;18853;45.426;9.206;2024-02-14T02:18:09;22.25;;;15.63;;
32393;SDS011;18853;45.426;9.206;2024-02-14T02:20:35;26.38;;;15.50;;
32393;SDS011;18853;45.426;9.206;2024-02-14T02:23:01;25.45;;;15.80;;
32393;SDS011;18853;45.426;9.206;2024-02-14T02:25:26;24.05;;;16.02;;
32393;SDS011;18853;45.426;9.206;2024-02-14T02:27:52;26.33;;;15.25;;
32393;SDS011;18853;45.426;9.206;2024-02-14T02:30:21;23.70;;;14.82;;
32393;SDS011;18853;45.426;9.206;2024-02-14T02:32:47;23.48;;;15.45;;
32393;SDS011;18853;45.426;9.206;2024-02-14T02:35:13;20.55;;;14.57;;
32393;SDS011;18853;45.426;9.206;2024-02-14T02:37:39;21.58;;;15.13;;
32393;SDS011;18853;45.426;9.206;2024-02-14T02:40:04;21.80;;;15.27;;
32393;SDS011;18853;45.426;9.206;2024-02-14T02:42:30;20.70;;;15.25;;
32393;SDS011;18853;45.426;9.206;2024-02-14T02:44:56;24.52;;;15.15;;
32393;SDS011;18853;45.426;9.206;2024-02-14T02:47:21;23.42;;;15.10;;
32393;SDS011;18853;45.426;9.206;2024-02-14T02:49:47;21.42;;;13.68;;
32393;SDS011;18853;45.426;9.206;2024-02-14T02:52:12;21.77;;;14.65;;
32393;SDS011;18853;45.426;9.206;2024-02-14T02:54:38;23.15;;;15.40;;
32393;SDS011;18853;45.426;9.206;2024-02-14T02:57:09;23.00;;;15.80;;
32393;SDS011;18853;45.426;9.206;2024-02-14T02:59:35;25.42;;;15.57;;
32393;SDS011;18853;45.426;9.206;2024-02-14T03:02:01;23.42;;;14.68;;
32393;SDS011;18853;45.426;9.206;2024-02-14T03:04:27;22.42;;;15.00;;
32393;SDS011;18853;45.426;9.206;2024-02-14T03:06:54;22.50;;;15.27;;
32393;SDS011;18853;45.426;9.206;2024-02-14T03:09:20;25.20;;;16.58;;
32393;SDS011;18853;45.426;9.206;2024-02-14T03:11:47;24.13;;;15.65;;
32393;SDS011;18853;45.426;9.206;2024-02-14T03:14:13;22.60;;;15.32;;
32393;SDS011;18853;45.426;9.206;2024-02-14T03:16:38;23.10;;;14.70;;
32393;SDS011;18853;45.426;9.206;2024-02-14T03:19:04;22.08;;;15.50;;
32393;SDS011;18853;45.426;9.206;2024-02-14T03:21:30;21.63;;;15.10;;
32393;SDS011;18853;45.426;9.206;2024-02-14T03:23:58;22.63;;;16.30;;
32393;SDS011;18853;45.426;9.206;2024-02-14T03:26:23;22.35;;;15.63;;
32393;SDS011;18853;45.426;9.206;2024-02-14T03:28:49;25.52;;;16.17;;
32393;SDS011;18853;45.426;9.206;2024-02-14T03:31:14;24.80;;;16.27;;
32393;SDS011;18853;45.426;9.206;2024-02-14T03:33:40;22.52;;;15.80;;
32393;SDS011;18853;45.426;9.206;2024-02-14T03:36:07;22.17;;;16.20;;
32393;SDS011;18853;45.426;9.206;2024-02-14T03:38:33;24.92;;;15.82;;
32393;SDS011;18853;45.426;9.206;2024-02-14T03:40:59;25.77;;;16.38;;
32393;SDS011;18853;45.426;9.206;2024-02-14T03:43:24;24.52;;;16.45;;
32393;SDS011;18853;45.426;9.206;2024-02-14T03:45:50;23.35;;;16.67;;
32393;SDS011;18853;45.426;9.206;2024-02-14T03:48:16;24.02;;;15.93;;
32393;SDS011;18853;45.426;9.206;2024-02-14T03:50:42;25.80;;;15.57;;
32393;SDS011;18853;45.426;9.206;2024-02-14T03:53:08;23.75;;;16.27;;
32393;SDS011;18853;45.426;9.206;2024-02-14T03:55:36;23.10;;;16.60;;
32393;SDS011;18853;45.426;9.206;2024-02-14T03:58:02;27.58;;;16.30;;
32393;SDS011;18853;45.426;9.206;2024-02-14T04:00:29;21.58;;;16.67;;
32393;SDS011;18853;45.426;9.206;2024-02-14T04:02:55;22.45;;;15.57;;
32393;SDS011;18853;45.426;9.206;2024-02-14T04:05:24;21.92;;;15.27;;
32393;SDS011;18853;45.426;9.206;2024-02-14T04:07:52;23.50;;;15.73;;
32393;SDS011;18853;45.426;9.206;2024-02-14T04:10:19;24.45;;;15.95;;
32393;SDS011;18853;45.426;9.206;2024-02-14T04:12:45;23.20;;;15.75;;
32393;SDS011;18853;45.426;9.206;2024-02-14T04:15:11;25.10;;;16.00;;
32393;SDS011;18853;45.426;9.206;2024-02-14T04:17:37;21.65;;;15.23;;
32393;SDS011;18853;45.426;9.206;2024-02-14T04:20:03;24.15;;;15.98;;
32393;SDS011;18853;45.426;9.206;2024-02-14T04:22:29;21.92;;;15.52;;
32393;SDS011;18853;45.426;9.206;2024-02-14T04:24:55;25.52;;;15.90;;
32393;SDS011;18853;45.426;9.206;2024-02-14T04:27:21;21.77;;;16.05;;
32393;SDS011;18853;45.426;9.206;2024-02-14T04:29:47;23.02;;;15.85;;
32393;SDS011;18853;45.426;9.206;2024-02-14T04:32:13;22.25;;;15.52;;
32393;SDS011;18853;45.426;9.206;2024-02-14T04:34:39;20.90;;;15.00;;
32393;SDS011;18853;45.426;9.206;2024-02-14T04:37:07;26.10;;;15.90;;
32393;SDS011;18853;45.426;9.206;2024-02-14T04:39:37;21.67;;;14.90;;
32393;SDS011;18853;45.426;9.206;2024-02-14T04:42:03;20.58;;;15.55;;
32393;SDS011;18853;45.426;9.206;2024-02-14T04:44:29;24.50;;;16.40;;
32393;SDS011;18853;45.426;9.206;2024-02-14T04:46:56;23.75;;;15.80;;
32393;SDS011;18853;45.426;9.206;2024-02-14T04:49:24;20.75;;;14.43;;
32393;SDS011;18853;45.426;9.206;2024-02-14T04:51:50;21.92;;;15.85;;
32393;SDS011;18853;45.426;9.206;2024-02-14T04:54:16;24.17;;;16.45;;
32393;SDS011;18853;45.426;9.206;2024-02-14T04:56:41;25.67;;;16.25;;
32393;SDS011;18853;45.426;9.206;2024-02-14T04:59:07;25.13;;;16.02;;
32393;SDS011;18853;45.426;9.206;2024-02-14T05:01:33;22.88;;;16.13;;
32393;SDS011;18853;45.426;9.206;2024-02-14T05:03:59;23.25;;;15.70;;
32393;SDS011;18853;45.426;9.206;2024-02-14T05:06:25;20.83;;;13.85;;
32393;SDS011;18853;45.426;9.206;2024-02-14T05:08:51;22.73;;;15.90;;
32393;SDS011;18853;45.426;9.206;2024-02-14T05:11:17;22.27;;;15.00;;
32393;SDS011;18853;45.426;9.206;2024-02-14T05:13:43;20.88;;;14.60;;
32393;SDS011;18853;45.426;9.206;2024-02-14T05:16:09;23.70;;;15.73;;
32393;SDS011;18853;45.426;9.206;2024-02-14T05:18:36;22.77;;;15.77;;
32393;SDS011;18853;45.426;9.206;2024-02-14T05:21:06;24.83;;;15.70;;
32393;SDS011;18853;45.426;9.206;2024-02-14T05:23:32;24.05;;;16.55;;
32393;SDS011;18853;45.426;9.206;2024-02-14T05:26:02;26.23;;;15.68;;
32393;SDS011;18853;45.426;9.206;2024-02-14T05:28:28;25.65;;;16.27;;
32393;SDS011;18853;45.426;9.206;2024-02-14T05:30:54;20.63;;;14.65;;
32393;SDS011;18853;45.426;9.206;2024-02-14T05:33:21;21.27;;;14.52;;
32393;SDS011;18853;45.426;9.206;2024-02-14T05:35:50;22.50;;;15.05;;
32393;SDS011;18853;45.426;9.206;2024-02-14T05:38:16;22.27;;;15.93;;
32393;SDS011;18853;45.426;9.206;2024-02-14T05:40:44;25.10;;;15.43;;
32393;SDS011;18853;45.426;9.206;2024-02-14T05:43:13;23.55;;;15.95;;
32393;SDS011;18853;45.426;9.206;2024-02-14T05:45:39;23.02;;;15.55;;
32393;SDS011;18853;45.426;9.206;2024-02-14T05:48:05;25.05;;;16.23;;
32393;SDS011;18853;45.426;9.206;2024-02-14T05:50:31;23.70;;;15.57;;
32393;SDS011;18853;45.426;9.206;2024-02-14T05:52:57;24.10;;;15.55;;
32393;SDS011;18853;45.426;9.206;2024-02-14T05:55:23;27.67;;;17.27;;
32393;SDS011;18853;45.426;9.206;2024-02-14T05:57:49;25.30;;;17.85;;
32393;SDS011;18853;45.426;9.206;2024-02-14T06:00:17;26.20;;;16.95;;
32393;SDS011;18853;45.426;9.206;2024-02-14T06:05:15;25.60;;;16.80;;
32393;SDS011;18853;45.426;9.206;2024-02-14T06:07:43;26.65;;;16.88;;
32393;SDS011;18853;45.426;9.206;2024-02-14T06:10:12;22.60;;;16.50;;
32393;SDS011;18853;45.426;9.206;2024-02-14T06:12:38;27.73;;;17.15;;
32393;SDS011;18853;45.426;9.206;2024-02-14T06:15:08;29.05;;;16.73;;
32393;SDS011;18853;45.426;9.206;2024-02-14T06:17:34;25.50;;;17.80;;
32393;SDS011;18853;45.426;9.206;2024-02-14T06:20:00;25.42;;;16.60;;
32393;SDS011;18853;45.426;9.206;2024-02-14T06:22:30;25.63;;;16.85;;
32393;SDS011;18853;45.426;9.206;2024-02-14T06:24:57;24.95;;;16.98;;
32393;SDS011;18853;45.426;9.206;2024-02-14T06:27:22;25.27;;;15.75;;
32393;SDS011;18853;45.426;9.206;2024-02-14T06:29:48;25.48;;;16.20;;
32393;SDS011;18853;45.426;9.206;2024-02-14T06:32:13;26.70;;;16.88;;
32393;SDS011;18853;45.426;9.206;2024-02-14T06:34:39;24.48;;;16.65;;
32393;SDS011;18853;45.426;9.206;2024-02-14T06:37:05;29.10;;;17.33;;
32393;SDS011;18853;45.426;9.206;2024-02-14T06:39:30;26.17;;;16.52;;
32393;SDS011;18853;45.426;9.206;2024-02-14T06:41:56;25.55;;;16.33;;
32393;SDS011;18853;45.426;9.206;2024-02-14T06:44:25;24.17;;;15.98;;
32393;SDS011;18853;45.426;9.206;2024-02-14T06:46:54;26.48;;;16.23;;
32393;SDS011;18853;45.426;9.206;2024-02-14T06:49:19;25.25;;;16.45;;
32393;SDS011;18853;45.426;9.206;2024-02-14T06:51:48;24.83;;;16.60;;
32393;SDS011;18853;45.426;9.206;2024-02-14T06:54:18;23.88;;;16.45;;
32393;SDS011;18853;45.426;9.206;2024-02-14T06:56:44;23.58;;;15.32;;
32393;SDS011;18853;45.426;9.206;2024-02-14T06:59:10;25.95;;;15.68;;
32393;SDS011;18853;45.426;9.206;2024-02-14T07:01:36;21.38;;;15.88;;
32393;SDS011;18853;45.426;9.206;2024-02-14T07:04:02;26.58;;;16.45;;
32393;SDS011;18853;45.426;9.206;2024-02-14T07:06:30;25.10;;;16.98;;
32393;SDS011;18853;45.426;9.206;2024-02-14T07:08:56;23.25;;;17.02;;
32393;SDS011;18853;45.426;9.206;2024-02-14T07:11:25;22.92;;;16.58;;
32393;SDS011;18853;45.426;9.206;2024-02-14T07:13:52;23.80;;;17.30;;
32393;SDS011;18853;45.426;9.206;2024-02-14T07:16:17;25.48;;;16.23;;
32393;SDS011;18853;45.426;9.206;2024-02-14T07:18:46;26.08;;;17.15;;
32393;SDS011;18853;45.426;9.206;2024-02-14T07:21:16;26.48;;;17.08;;
32393;SDS011;18853;45.426;9.206;2024-02-14T07:23:47;28.92;;;16.80;;
32393;SDS011;18853;45.426;9.206;2024-02-14T07:26:13;30.20;;;18.15;;
32393;SDS011;18853;45.426;9.206;2024-02-14T07:28:39;27.40;;;17.70;;
32393;SDS011;18853;45.426;9.206;2024-02-14T07:31:04;26.10;;;17.05;;
32393;SDS011;18853;45.426;9.206;2024-02-14T07:33:30;27.70;;;17.70;;
32393;SDS011;18853;45.426;9.206;2024-02-14T07:35:56;24.85;;;17.52;;
32393;SDS011;18853;45.426;9.206;2024-02-14T07:38:22;23.15;;;16.40;;
32393;SDS011;18853;45.426;9.206;2024-02-14T07:40:49;28.30;;;17.45;;
32393;SDS011;18853;45.426;9.206;2024-02-14T07:43:15;25.80;;;18.10;;
32393;SDS011;18853;45.426;9.206;2024-02-14T07:46:01;28.05;;;17.33;;
32393;SDS011;18853;45.426;9.206;2024-02-14T07:48:30;30.40;;;18.75;;
32393;SDS011;18853;45.426;9.206;2024-02-14T07:50:56;29.85;;;19.52;;
32393;SDS011;18853;45.426;9.206;2024-02-14T07:53:22;35.15;;;20.48;;
32393;SDS011;18853;45.426;9.206;2024-02-14T07:55:48;33.63;;;19.73;;
32393;SDS011;18853;45.426;9.206;2024-02-14T07:58:14;27.52;;;19.00;;
32393;SDS011;18853;45.426;9.206;2024-02-14T08:00:40;31.88;;;19.33;;
32393;SDS011;18853;45.426;9.206;2024-02-14T08:03:05;30.75;;;19.13;;
32393;SDS011;18853;45.426;9.206;2024-02-14T08:05:31;29.48;;;18.83;;
32393;SDS011;18853;45.426;9.206;2024-02-14T08:07:56;29.02;;;19.27;;
32393;SDS011;18853;45.426;9.206;2024-02-14T08:10:23;34.00;;;20.80;;
32393;SDS011;18853;45.426;9.206;2024-02-14T08:12:49;29.58;;;20.65;;
32393;SDS011;18853;45.426;9.206;2024-02-14T08:15:14;25.63;;;19.05;;
32393;SDS011;18853;45.426;9.206;2024-02-14T08:17:40;27.58;;;20.67;;
32393;SDS011;18853;45.426;9.206;2024-02-14T08:20:06;30.65;;;20.27;;
32393;SDS011;18853;45.426;9.206;2024-02-14T08:22:32;29.58;;;19.98;;
32393;SDS011;18853;45.426;9.206;2024-02-14T08:24:58;29.40;;;19.98;;
32393;SDS011;18853;45.426;9.206;2024-02-14T08:27:24;27.80;;;19.70;;
32393;SDS011;18853;45.426;9.206;2024-02-14T08:29:51;31.30;;;19.80;;
32393;SDS011;18853;45.426;9.206;2024-02-14T08:32:16;28.85;;;19.40;;
32393;SDS011;18853;45.426;9.206;2024-02-14T08:35:00;31.83;;;20.60;;
32393;SDS011;18853;45.426;9.206;2024-02-14T08:37:26;31.70;;;19.85;;
32393;SDS011;18853;45.426;9.206;2024-02-14T08:39:52;25.58;;;19.25;;
32393;SDS011;18853;45.426;9.206;2024-02-14T08:42:18;30.85;;;19.90;;
32393;SDS011;18853;45.426;9.206;2024-02-14T08:44:43;28.55;;;19.33;;
32393;SDS011;18853;45.426;9.206;2024-02-14T08:47:09;30.08;;;19.58;;
32393;SDS011;18853;45.426;9.206;2024-02-14T08:49:35;28.15;;;18.70;;
32393;SDS011;18853;45.426;9.206;2024-02-14T08:52:01;28.85;;;19.65;;
32393;SDS011;18853;45.426;9.206;2024-02-14T08:54:27;28.17;;;20.52;;
32393;SDS011;18853;45.426;9.206;2024-02-14T08:56:53;32.15;;;20.90;;
32393;SDS011;18853;45.426;9.206;2024-02-14T08:59:20;30.40;;;20.83;;
32393;SDS011;18853;45.426;9.206;2024-02-14T09:01:46;28.65;;;19.80;;
32393;SDS011;18853;45.426;9.206;2024-02-14T09:04:13;26.35;;;18.83;;
32393;SDS011;18853;45.426;9.206;2024-02-14T09:06:38;27.50;;;19.67;;
32393;SDS011;18853;45.426;9.206;2024-02-14T09:09:05;25.48;;;18.25;;
32393;SDS011;18853;45.426;9.206;2024-02-14T09:11:32;27.00;;;18.00;;
32393;SDS011;18853;45.426;9.206;2024-02-14T09:13:57;26.27;;;18.60;;
32393;SDS011;18853;45.426;9.206;2024-02-14T09:16:29;25.98;;;18.23;;
32393;SDS011;18853;45.426;9.206;2024-02-14T09:18:55;28.60;;;18.50;;
32393;SDS011;18853;45.426;9.206;2024-02-14T09:21:21;26.92;;;18.80;;
32393;SDS011;18853;45.426;9.206;2024-02-14T09:23:47;27.00;;;18.02;;
32393;SDS011;18853;45.426;9.206;2024-02-14T09:26:13;23.88;;;18.23;;
32393;SDS011;18853;45.426;9.206;2024-02-14T09:28:42;26.40;;;17.35;;
32393;SDS011;18853;45.426;9.206;2024-02-14T09:31:08;26.95;;;17.65;;
32393;SDS011;18853;45.426;9.206;2024-02-14T09:33:36;23.95;;;16.20;;
32393;SDS011;18853;45.426;9.206;2024-02-14T09:36:02;23.02;;;15.60;;
32393;SDS011;18853;45.426;9.206;2024-02-14T09:38:29;25.67;;;16.08;;
32393;SDS011;18853;45.426;9.206;2024-02-14T09:40:55;22.88;;;13.80;;
32393;SDS011;18853;45.426;9.206;2024-02-14T09:43:34;24.17;;;13.80;;
32393;SDS011;18853;45.426;9.206;2024-02-14T09:46:02;21.13;;;14.35;;
32393;SDS011;18853;45.426;9.206;2024-02-14T09:48:29;21.65;;;14.25;;
32393;SDS011;18853;45.426;9.206;2024-02-14T09:50:55;18.92;;;14.35;;
32393;SDS011;18853;45.426;9.206;2024-02-14T09:53:21;20.98;;;14.50;;
32393;SDS011;18853;45.426;9.206;2024-02-14T09:55:49;22.58;;;15.02;;
32393;SDS011;18853;45.426;9.206;2024-02-14T09:58:15;21.08;;;16.00;;
32393;SDS011;18853;45.426;9.206;2024-02-14T10:00:42;20.30;;;14.85;;
32393;SDS011;18853;45.426;9.206;2024-02-14T10:03:08;22.35;;;14.32;;
32393;SDS011;18853;45.426;9.206;2024-02-14T10:05:34;22.65;;;14.85;;
32393;SDS011;18853;45.426;9.206;2024-02-14T10:07:59;18.92;;;14.20;;
32393;SDS011;18853;45.426;9.206;2024-02-14T10:10:26;19.45;;;13.38;;
32393;SDS011;18853;45.426;9.206;2024-02-14T10:12:54;24.15;;;15.73;;
32393;SDS011;18853;45.426;9.206;2024-02-14T10:15:21;24.17;;;15.57;;
32393;SDS011;18853;45.426;9.206;2024-02-14T10:17:47;22.10;;;16.45;;
32393;SDS011;18853;45.426;9.206;2024-02-14T10:20:16;22.42;;;16.13;;
32393;SDS011;18853;45.426;9.206;2024-02-14T10:22:42;20.75;;;15.80;;
32393;SDS011;18853;45.426;9.206;2024-02-14T10:25:09;22.05;;;15.20;;
32393;SDS011;18853;45.426;9.206;2024-02-14T10:27:38;23.92;;;15.00;;
32393;SDS011;18853;45.426;9.206;2024-02-14T10:30:05;24.00;;;16.70;;
32393;SDS011;18853;45.426;9.206;2024-02-14T10:32:34;19.55;;;15.13;;
32393;SDS011;18853;45.426;9.206;2024-02-14T10:35:05;21.80;;;14.80;;
32393;SDS011;18853;45.426;9.206;2024-02-14T10:37:37;20.63;;;15.18;;
32393;SDS011;18853;45.426;9.206;2024-02-14T10:40:03;24.23;;;15.38;;
32393;SDS011;18853;45.426;9.206;2024-02-14T10:42:29;21.90;;;14.32;;
32393;SDS011;18853;45.426;9.206;2024-02-14T10:44:56;24.90;;;15.55;;
32393;SDS011;18853;45.426;9.206;2024-02-14T10:47:23;21.98;;;15.70;;
32393;SDS011;18853;45.426;9.206;2024-02-14T10:49:53;21.05;;;14.75;;
32393;SDS011;18853;45.426;9.206;2024-02-14T10:52:22;21.42;;;15.68;;
32393;SDS011;18853;45.426;9.206;2024-02-14T10:54:52;24.48;;;16.45;;
32393;SDS011;18853;45.426;9.206;2024-02-14T10:57:24;22.83;;;16.67;;
32393;SDS011;18853;45.426;9.206;2024-02-14T10:59:50;23.90;;;16.90;;
32393;SDS011;18853;45.426;9.206;2024-02-14T11:02:16;24.38;;;16.15;;
32393;SDS011;18853;45.426;9.206;2024-02-14T11:04:45;21.92;;;16.17;;
32393;SDS011;18853;45.426;9.206;2024-02-14T11:07:10;27.65;;;16.67;;
32393;SDS011;18853;45.426;9.206;2024-02-14T11:09:36;26.70;;;17.65;;
32393;SDS011;18853;45.426;9.206;2024-02-14T11:12:02;27.73;;;17.65;;
32393;SDS011;18853;45.426;9.206;2024-02-14T11:14:32;31.58;;;18.30;;
32393;SDS011;18853;45.426;9.206;2024-02-14T11:17:09;28.30;;;17.95;;
32393;SDS011;18853;45.426;9.206;2024-02-14T11:19:37;24.88;;;16.20;;
32393;SDS011;18853;45.426;9.206;2024-02-14T11:22:18;29.05;;;17.35;;
32393;SDS011;18853;45.426;9.206;2024-02-14T11:24:47;27.05;;;17.10;;
32393;SDS011;18853;45.426;9.206;2024-02-14T11:27:13;26.27;;;16.38;;
32393;SDS011;18853;45.426;9.206;2024-02-14T11:29:52;26.80;;;17.52;;
32393;SDS011;18853;45.426;9.206;2024-02-14T11:32:18;25.88;;;18.13;;
32393;SDS011;18853;45.426;9.206;2024-02-14T11:34:52;24.33;;;16.60;;
32393;SDS011;18853;45.426;9.206;2024-02-14T11:37:20;25.55;;;17.58;;
32393;SDS011;18853;45.426;9.206;2024-02-14T11:39:46;27.58;;;19.02;;
32393;SDS011;18853;45.426;9.206;2024-02-14T11:42:16;25.93;;;17.83;;
32393;SDS011;18853;45.426;9.206;2024-02-14T11:44:42;25.27;;;16.95;;
32393;SDS011;18853;45.426;9.206;2024-02-14T11:47:09;24.05;;;17.02;;
32393;SDS011;18853;45.426;9.206;2024-02-14T11:49:35;25.50;;;18.30;;
32393;SDS011;18853;45.426;9.206;2024-02-14T11:52:01;26.38;;;18.10;;
32393;SDS011;18853;45.426;9.206;2024-02-14T11:54:29;27.30;;;17.38;;
32393;SDS011;18853;45.426;9.206;2024-02-14T11:56:54;24.73;;;16.65;;
32393;SDS011;18853;45.426;9.206;2024-02-14T11:59:20;25.95;;;16.55;;
32393;SDS011;18853;45.426;9.206;2024-02-14T12:01:48;26.95;;;17.02;;
32393;SDS011;18853;45.426;9.206;2024-02-14T12:04:16;25.92;;;18.58;;
32393;SDS011;18853;45.426;9.206;2024-02-14T12:06:43;26.65;;;18.02;;
32393;SDS011;18853;45.426;9.206;2024-02-14T12:09:09;26.80;;;18.13;;
32393;SDS011;18853;45.426;9.206;2024-02-14T12:11:39;25.13;;;17.13;;
32393;SDS011;18853;45.426;9.206;2024-02-14T12:14:08;25.85;;;17.58;;
32393;SDS011;18853;45.426;9.206;2024-02-14T12:16:37;23.70;;;16.08;;
32393;SDS011;18853;45.426;9.206;2024-02-14T12:19:14;22.08;;;15.32;;
32393;SDS011;18853;45.426;9.206;2024-02-14T12:24:07;20.05;;;14.38;;
32393;SDS011;18853;45.426;9.206;2024-02-14T12:26:34;24.85;;;15.20;;
32393;SDS011;18853;45.426;9.206;2024-02-14T12:29:04;23.48;;;14.90;;
32393;SDS011;18853;45.426;9.206;2024-02-14T12:31:31;19.75;;;13.30;;
32393;SDS011;18853;45.426;9.206;2024-02-14T12:33:57;23.63;;;13.98;;
32393;SDS011;18853;45.426;9.206;2024-02-14T12:36:30;24.45;;;14.52;;
32393;SDS011;18853;45.426;9.206;2024-02-14T12:38:58;21.73;;;15.50;;
32393;SDS011;18853;45.426;9.206;2024-02-14T12:41:24;21.80;;;14.13;;
32393;SDS011;18853;45.426;9.206;2024-02-14T12:43:52;22.83;;;14.55;;
32393;SDS011;18853;45.426;9.206;2024-02-14T12:46:18;22.27;;;14.15;;
32393;SDS011;18853;45.426;9.206;2024-02-14T12:48:44;21.92;;;14.43;;
32393;SDS011;18853;45.426;9.206;2024-02-14T12:51:09;20.70;;;14.93;;
32393;SDS011;18853;45.426;9.206;2024-02-14T12:53:35;20.33;;;14.13;;
32393;SDS011;18853;45.426;9.206;2024-02-14T12:56:01;21.17;;;14.50;;
32393;SDS011;18853;45.426;9.206;2024-02-14T12:58:27;21.38;;;14.10;;
32393;SDS011;18853;45.426;9.206;2024-02-14T13:00:53;20.30;;;13.50;;
32393;SDS011;18853;45.426;9.206;2024-02-14T13:03:19;20.50;;;14.38;;
32393;SDS011;18853;45.426;9.206;2024-02-14T13:05:44;18.58;;;14.25;;
32393;SDS011;18853;45.426;9.206;2024-02-14T13:08:10;20.58;;;14.70;;
32393;SDS011;18853;45.426;9.206;2024-02-14T13:10:36;21.38;;;14.68;;
32393;SDS011;18853;45.426;9.206;2024-02-14T13:13:02;21.90;;;14.80;;
32393;SDS011;18853;45.426;9.206;2024-02-14T13:15:28;23.63;;;14.63;;
32393;SDS011;18853;45.426;9.206;2024-02-14T13:17:53;19.88;;;14.57;;
32393;SDS011;18853;45.426;9.206;2024-02-14T13:20:19;19.17;;;14.55;;
32393;SDS011;18853;45.426;9.206;2024-02-14T13:22:44;18.38;;;13.38;;
32393;SDS011;18853;45.426;9.206;2024-02-14T13:25:11;20.83;;;15.05;;
32393;SDS011;18853;45.426;9.206;2024-02-14T13:27:36;20.05;;;14.35;;
32393;SDS011;18853;45.426;9.206;2024-02-14T13:30:03;22.35;;;15.52;;
32393;SDS011;18853;45.426;9.206;2024-02-14T13:32:29;21.67;;;14.68;;
32393;SDS011;18853;45.426;9.206;2024-02-14T13:34:55;20.10;;;14.93;;
32393;SDS011;18853;45.426;9.206;2024-02-14T13:37:21;18.10;;;13.40;;
32393;SDS011;18853;45.426;9.206;2024-02-14T13:39:48;20.40;;;14.95;;
32393;SDS011;18853;45.426;9.206;2024-02-14T13:42:13;18.23;;;14.00;;
32393;SDS011;18853;45.426;9.206;2024-02-14T13:44:39;19.17;;;14.07;;
32393;SDS011;18853;45.426;9.206;2024-02-14T13:47:04;21.17;;;15.45;;
32393;SDS011;18853;45.426;9.206;2024-02-14T13:49:30;19.30;;;12.98;;
32393;SDS011;18853;45.426;9.206;2024-02-14T13:51:56;17.60;;;13.10;;
32393;SDS011;18853;45.426;9.206;2024-02-14T13:54:23;19.17;;;14.23;;
32393;SDS011;18853;45.426;9.206;2024-02-14T13:56:49;21.73;;;14.35;;
32393;SDS011;18853;45.426;9.206;2024-02-14T13:59:15;20.00;;;14.27;;
32393;SDS011;18853;45.426;9.206;2024-02-14T14:01:41;18.75;;;14.20;;
32393;SDS011;18853;45.426;9.206;2024-02-14T14:04:07;20.63;;;14.40;;
32393;SDS011;18853;45.426;9.206;2024-02-14T14:06:33;20.42;;;14.70;;
32393;SDS011;18853;45.426;9.206;2024-02-14T14:09:00;20.58;;;14.38;;
32393;SDS011;18853;45.426;9.206;2024-02-14T14:11:28;19.33;;;12.82;;
32393;SDS011;18853;45.426;9.206;2024-02-14T14:13:53;16.05;;;12.38;;
32393;SDS011;18853;45.426;9.206;2024-02-14T14:16:19;20.92;;;14.05;;
32393;SDS011;18853;45.426;9.206;2024-02-14T14:18:46;17.30;;;13.93;;
32393;SDS011;18853;45.426;9.206;2024-02-14T14:21:13;20.58;;;14.75;;
32393;SDS011;18853;45.426;9.206;2024-02-14T14:23:40;21.63;;;13.85;;